Time;durP1;ratioP1;P1;durP2;ratioP2;P2;SDS_P1;SDS_P2;PMS_P1;PMS_P2;Temp;Humidity;BMP_temperature;BMP_pressure;BME280_temperature;BME280_humidity;BME280_pressure;Samples;Min_cycle;Max_cycle;Signal;HPM_P1;HPM_P2
2023/05/23 00:00:00;;;;;;;;;;;;;;;19.54;67.87;98474.69;2087283;28;20476;-49
2023/05/23 00:01:02;;;;;;;;;;;;;;;19.53;67.92;98479.25;2090078;28;19951;-50
2023/05/23 00:02:06;;;;;;;;;;;;;;;19.52;67.60;98482.16;2084520;28;20331;-50
2023/05/23 00:03:09;;;;;;;;;;;;;;;19.53;67.92;98478.41;2087606;28;19948;-51
2023/05/23 00:04:15;;;;;;;;;;;;;;;19.53;67.90;98479.25;2084088;28;19927;-54
2023/05/23 00:05:18;;;;;;;;;;;;;;;19.53;67.69;98473.03;2084629;28;19925;-52
2023/05/23 00:06:20;;;;;;;;;;;;;;;19.54;67.94;98474.69;2085967;28;19920;-49
2023/05/23 00:07:21;;;;;;;;;;;;;;;19.53;67.87;98475.72;2085858;28;19974;-47
2023/05/23 00:08:22;;;;;;;;;;;;;;;19.52;67.92;98471.41;2084938;28;19924;-51
2023/05/23 00:09:23;;;;;;;;;;;;;;;19.53;67.96;98481.09;2087229;28;19925;-50
2023/05/23 00:10:24;;;;;;;;;;;;;;;19.53;67.88;98478.41;2086700;28;20073;-49
2023/05/23 00:11:27;;;;;;;;;;;;;;;19.52;67.96;98471.41;2087716;28;20038;-50
2023/05/23 00:12:28;;;;;;;;;;;;;;;19.52;67.83;98474.09;2085222;28;20509;-50
2023/05/23 00:13:32;;;;;;;;;;;;;;;19.52;67.76;98476.78;2087400;28;19921;-48
2023/05/23 00:14:34;;;;;;;;;;;;;;;19.52;68.05;98474.09;2090697;28;19931;-48
2023/05/23 00:15:36;;;;;;;;;;;;;;;19.51;67.85;98469.75;2086606;28;20017;-52
2023/05/23 00:16:40;;;;;;;;;;;;;;;19.49;67.80;98474.50;2089784;28;20577;-53
2023/05/23 00:17:41;;;;;;;;;;;;;;;19.49;67.80;98467.25;2087112;28;20020;-49
2023/05/23 00:18:44;;;;;;;;;;;;;;;19.50;68.09;98476.16;2088078;28;19981;-50
2023/05/23 00:19:45;;;;;;;;;;;;;;;19.50;67.67;98466.25;2087687;28;19936;-48
2023/05/23 00:20:47;;;;;;;;;;;;;;;19.50;68.05;98466.25;2086139;28;19921;-49
2023/05/23 00:21:49;;;;;;;;;;;;;;;19.50;67.83;98468.94;2085797;28;19969;-49
2023/05/23 00:22:51;;;;;;;;;;;;;;;19.51;67.95;98461.69;2089966;28;19928;-53
2023/05/23 00:23:53;;;;;;;;;;;;;;;19.51;68.03;98467.06;2085680;28;19920;-50
2023/05/23 00:24:53;;;;;;;;;;;;;;;19.50;68.04;98460.88;2089191;28;20520;-51
2023/05/23 00:25:55;;;;;;;;;;;;;;;19.51;67.98;98464.38;2089778;28;19954;-50
2023/05/23 00:26:57;;;;;;;;;;;;;;;19.50;67.80;98457.31;2087840;28;19920;-49
2023/05/23 00:27:59;;;;;;;;;;;;;;;19.50;67.58;98460.00;2089832;28;20291;-52
2023/05/23 00:28:59;;;;;;;;;;;;;;;19.51;67.67;98459.00;2087238;28;20413;-50
2023/05/23 00:30:01;;;;;;;;;;;;;;;19.50;67.88;98454.63;2086807;28;19970;-47
2023/05/23 00:31:01;;;;;;;;;;;;;;;19.50;68.05;98452.78;2086220;28;19989;-52
2023/05/23 00:32:03;;;;;;;;;;;;;;;19.50;67.97;98454.63;2086410;28;21355;-46
2023/05/23 00:33:03;;;;;;;;;;;;;;;19.49;67.90;98461.88;2086188;28;21745;-51
2023/05/23 00:34:05;;;;;;;;;;;;;;;19.50;68.00;98458.19;2086535;28;19924;-49
2023/05/23 00:35:06;;;;;;;;;;;;;;;19.50;67.71;98460.00;2086040;28;20501;-49
2023/05/23 00:36:09;;;;;;;;;;;;;;;19.51;68.03;98467.06;2086122;28;19924;-47
2023/05/23 00:37:10;;;;;;;;;;;;;;;19.49;67.81;98467.25;2087116;28;20342;-50
2023/05/23 00:38:13;;;;;;;;;;;;;;;19.51;67.69;98465.19;2087055;28;19939;-51
2023/05/23 00:39:18;;;;;;;;;;;;;;;19.51;68.06;98464.38;2089193;28;19924;-49
2023/05/23 00:40:19;;;;;;;;;;;;;;;19.49;67.80;98467.25;2087245;28;19979;-48
2023/05/23 00:41:19;;;;;;;;;;;;;;;19.50;67.98;98457.31;2086493;28;19925;-52
2023/05/23 00:42:21;;;;;;;;;;;;;;;19.50;67.63;98473.47;2086240;28;19932;-48
2023/05/23 00:43:21;;;;;;;;;;;;;;;19.49;68.03;98472.66;2085893;28;19978;-49
2023/05/23 00:44:23;;;;;;;;;;;;;;;19.49;68.01;98469.13;2086425;28;19925;-52
2023/05/23 00:45:23;;;;;;;;;;;;;;;19.48;67.90;98467.50;2086842;28;19924;-50
2023/05/23 00:46:25;;;;;;;;;;;;;;;19.49;67.72;98471.81;2088889;28;19928;-49
2023/05/23 00:47:25;;;;;;;;;;;;;;;19.50;67.96;98470.78;2087344;28;19927;-51
2023/05/23 00:48:27;;;;;;;;;;;;;;;19.49;67.89;98471.81;2086838;28;19986;-51
2023/05/23 00:49:28;;;;;;;;;;;;;;;19.50;67.97;98465.41;2088330;28;19929;-51
2023/05/23 00:50:30;;;;;;;;;;;;;;;19.50;67.60;98468.09;2086745;28;19945;-54
2023/05/23 00:51:32;;;;;;;;;;;;;;;19.49;67.65;98466.44;2089096;28;19965;-52
2023/05/23 00:52:34;;;;;;;;;;;;;;;19.48;68.00;98465.63;2087590;28;19931;-50
2023/05/23 00:53:34;;;;;;;;;;;;;;;19.48;68.00;98468.31;2087476;28;20020;-50
2023/05/23 00:54:36;;;;;;;;;;;;;;;19.49;67.96;98469.13;2086860;28;19982;-50
2023/05/23 00:55:38;;;;;;;;;;;;;;;19.49;68.00;98469.13;2089244;28;19920;-51
2023/05/23 00:56:40;;;;;;;;;;;;;;;19.48;67.89;98465.63;2089369;28;19921;-51
2023/05/23 00:57:43;;;;;;;;;;;;;;;19.48;67.90;98464.81;2085934;28;19927;-48
2023/05/23 00:58:45;;;;;;;;;;;;;;;19.47;67.82;98468.50;2086240;28;19928;-50
2023/05/23 00:59:46;;;;;;;;;;;;;;;19.49;67.84;98471.81;2088304;28;19920;-49
2023/05/23 01:00:49;;;;;;;;;;;;;;;19.47;68.00;98463.94;2087604;28;19925;-50
2023/05/23 01:01:50;;;;;;;;;;;;;;;19.47;68.01;98463.13;2087265;28;20398;-49
2023/05/23 01:02:52;;;;;;;;;;;;;;;19.47;68.05;98460.44;2090306;28;19927;-48
2023/05/23 01:03:52;;;;;;;;;;;;;;;19.46;68.09;98465.00;2079222;28;21487;-47
2023/05/23 01:04:55;;;;;;;;;;;;;;;19.46;67.84;98464.19;2088043;28;19927;-50
2023/05/23 01:05:56;;;;;;;;;;;;;;;19.46;67.91;98462.31;2088721;28;19954;-49
2023/05/23 01:06:59;;;;;;;;;;;;;;;19.47;67.66;98458.56;2089632;28;19928;-52
2023/05/23 01:08:02;;;;;;;;;;;;;;;19.47;67.91;98466.66;2087014;28;19988;-50
2023/05/23 01:09:03;;;;;;;;;;;;;;;19.48;67.55;98456.72;2087442;28;19931;-52
2023/05/23 01:10:04;;;;;;;;;;;;;;;19.47;68.03;98463.13;2085300;28;20003;-52
2023/05/23 01:11:11;;;;;;;;;;;;;;;19.48;67.97;98459.44;2089034;28;20367;-48
2023/05/23 01:12:16;;;;;;;;;;;;;;;19.46;67.90;98454.25;2085165;28;19924;-52
2023/05/23 01:13:20;;;;;;;;;;;;;;;19.46;67.79;98453.44;2085559;28;19931;-53
2023/05/23 01:14:23;;;;;;;;;;;;;;;19.45;67.87;98457.97;2086932;28;19920;-50
2023/05/23 01:15:28;;;;;;;;;;;;;;;19.46;67.68;98459.63;2085953;28;20340;-50
2023/05/23 01:16:40;;;;;;;;;;;;;;;19.47;67.49;98455.06;2088786;28;19970;-55
2023/05/23 01:17:46;;;;;;;;;;;;;;;19.46;67.84;98458.81;2084395;28;19920;-49
2023/05/23 01:18:49;;;;;;;;;;;;;;;19.45;67.62;98457.97;2089151;28;19924;-51
2023/05/23 01:20:00;;;;;;;;;;;;;;;19.45;67.62;98454.47;2086053;28;20003;-50
2023/05/23 01:21:02;;;;;;;;;;;;;;;19.45;67.55;98452.59;2086613;28;19921;-52
2023/05/23 01:22:11;;;;;;;;;;;;;;;19.45;67.54;98459.84;2086837;28;19928;-53
2023/05/23 01:23:25;;;;;;;;;;;;;;;19.45;67.92;98457.16;2087151;28;20314;-48
2023/05/23 01:24:35;;;;;;;;;;;;;;;19.45;67.78;98462.53;2085535;28;19920;-53
2023/05/23 01:25:44;;;;;;;;;;;;;;;19.45;67.49;98454.47;2088475;28;19924;-48
2023/05/23 01:26:54;;;;;;;;;;;;;;;19.45;67.93;98454.47;2086913;28;20295;-47
2023/05/23 01:27:59;;;;;;;;;;;;;;;19.45;67.86;98459.84;2089718;28;19936;-53
2023/05/23 01:29:09;;;;;;;;;;;;;;;19.46;67.79;98456.13;2087782;28;20865;-48
2023/05/23 01:30:10;;;;;;;;;;;;;;;19.45;67.63;98457.16;2088287;28;19924;-49
2023/05/23 01:31:12;;;;;;;;;;;;;;;19.45;67.98;98457.16;2086509;28;20015;-50
2023/05/23 01:32:15;;;;;;;;;;;;;;;19.45;67.87;98454.47;2084965;28;19932;-49
2023/05/23 01:33:16;;;;;;;;;;;;;;;19.45;68.03;98457.16;2088753;28;19936;-51
2023/05/23 01:34:17;;;;;;;;;;;;;;;19.45;67.60;98459.84;2088340;28;19924;-51
2023/05/23 01:35:22;;;;;;;;;;;;;;;19.44;67.98;98459.00;2088164;28;19924;-48
2023/05/23 01:36:22;;;;;;;;;;;;;;;19.43;67.85;98455.50;2088675;28;19982;-50
2023/05/23 01:37:24;;;;;;;;;;;;;;;19.42;68.05;98459.22;2089820;28;20003;-50
2023/05/23 01:38:24;;;;;;;;;;;;;;;19.43;68.00;98460.06;2089634;28;20499;-50
2023/05/23 01:39:26;;;;;;;;;;;;;;;19.42;67.73;98456.53;2086204;28;19932;-52
2023/05/23 01:40:26;;;;;;;;;;;;;;;19.43;67.77;98458.19;2087105;28;20009;-49
2023/05/23 01:41:28;;;;;;;;;;;;;;;19.42;67.73;98453.84;2087630;28;19979;-50
2023/05/23 01:42:28;;;;;;;;;;;;;;;19.44;67.93;98453.63;2086638;28;19921;-49
2023/05/23 01:43:32;;;;;;;;;;;;;;;19.42;67.40;98456.53;2088351;28;20019;-57
2023/05/23 01:44:33;;;;;;;;;;;;;;;19.42;67.99;98461.94;2087972;28;19981;-53
2023/05/23 01:45:35;;;;;;;;;;;;;;;19.42;67.87;98453.84;2090186;28;20028;-50
2023/05/23 01:46:38;;;;;;;;;;;;;;;19.42;67.63;98451.16;2088324;28;19924;-54
2023/05/23 01:47:40;;;;;;;;;;;;;;;19.42;67.74;98451.16;2086839;28;19930;-49
2023/05/23 01:48:41;;;;;;;;;;;;;;;19.41;67.60;98449.50;2088643;28;20328;-49
2023/05/23 01:49:44;;;;;;;;;;;;;;;19.43;67.64;98458.19;2087456;28;20024;-51
2023/05/23 01:50:44;;;;;;;;;;;;;;;19.41;67.61;98454.88;2088371;28;19920;-49
2023/05/23 01:51:46;;;;;;;;;;;;;;;19.41;67.95;98454.88;2086463;28;20455;-49
2023/05/23 01:52:47;;;;;;;;;;;;;;;19.41;67.82;98457.56;2087276;28;20591;-51
2023/05/23 01:53:48;;;;;;;;;;;;;;;19.41;67.71;98454.88;2086802;28;19936;-51
2023/05/23 01:54:49;;;;;;;;;;;;;;;19.41;67.65;98457.56;2089952;28;19932;-48
2023/05/23 01:55:51;;;;;;;;;;;;;;;19.43;67.67;98454.69;2087854;28;19969;-49
2023/05/23 01:56:53;;;;;;;;;;;;;;;19.41;67.50;98459.44;2088912;28;20712;-50
2023/05/23 01:57:55;;;;;;;;;;;;;;;19.42;67.95;98456.53;2087228;28;19920;-49
2023/05/23 01:58:57;;;;;;;;;;;;;;;19.40;67.51;98453.22;2089814;28;20791;-51
2023/05/23 01:59:58;;;;;;;;;;;;;;;19.41;67.73;98456.75;2087451;28;19924;-50
2023/05/23 02:00:59;;;;;;;;;;;;;;;19.40;67.98;98455.94;2088380;28;20024;-49
2023/05/23 02:02:00;;;;;;;;;;;;;;;19.40;67.80;98453.22;2088616;28;19970;-49
2023/05/23 02:03:01;;;;;;;;;;;;;;;19.41;67.81;98454.06;2089205;28;22255;-48
2023/05/23 02:04:03;;;;;;;;;;;;;;;19.40;67.67;98453.22;2085608;28;19928;-50
2023/05/23 02:05:04;;;;;;;;;;;;;;;19.40;67.85;98452.41;2087101;28;19981;-50
2023/05/23 02:06:06;;;;;;;;;;;;;;;19.41;67.42;98454.06;2087721;28;20285;-49
2023/05/23 02:07:06;;;;;;;;;;;;;;;19.41;67.66;98457.56;2085611;28;20888;-49
2023/05/23 02:08:07;;;;;;;;;;;;;;;19.40;67.77;98452.41;2086753;28;19982;-50
2023/05/23 02:09:08;;;;;;;;;;;;;;;19.41;67.65;98465.63;2088039;28;19969;-53
2023/05/23 02:10:10;;;;;;;;;;;;;;;19.41;67.87;98457.56;2087347;28;19925;-49
2023/05/23 02:11:10;;;;;;;;;;;;;;;19.40;67.55;98453.22;2088733;28;20038;-52
2023/05/23 02:12:12;;;;;;;;;;;;;;;19.40;67.63;98452.41;2087197;28;19936;-50
2023/05/23 02:13:12;;;;;;;;;;;;;;;19.40;67.97;98453.22;2088841;28;20704;-51
2023/05/23 02:14:17;;;;;;;;;;;;;;;19.41;67.72;98459.44;2083407;28;19928;-51
2023/05/23 02:15:17;;;;;;;;;;;;;;;19.40;67.87;98457.78;2084855;28;19921;-52
2023/05/23 02:16:19;;;;;;;;;;;;;;;19.40;67.51;98458.63;2085955;28;20440;-50
2023/05/23 02:17:20;;;;;;;;;;;;;;;19.40;67.55;98455.94;2086773;28;19929;-50
2023/05/23 02:18:24;;;;;;;;;;;;;;;19.40;67.49;98453.22;2084546;28;20341;-49
2023/05/23 02:19:25;;;;;;;;;;;;;;;19.39;67.76;98453.47;2083744;28;20015;-49
2023/05/23 02:20:27;;;;;;;;;;;;;;;19.39;67.83;98446.22;2085784;28;19921;-49
2023/05/23 02:21:27;;;;;;;;;;;;;;;19.39;67.75;98451.59;2087635;28;19970;-50
2023/05/23 02:22:29;;;;;;;;;;;;;;;19.41;67.66;98454.06;2083648;28;19928;-50
2023/05/23 02:23:29;;;;;;;;;;;;;;;19.40;67.69;98449.72;2085795;28;19928;-56
2023/05/23 02:24:30;;;;;;;;;;;;;;;19.39;67.61;98446.22;2081433;28;20095;-52
2023/05/23 02:25:31;;;;;;;;;;;;;;;19.39;67.49;98448.91;2084494;28;19936;-53
2023/05/23 02:26:32;;;;;;;;;;;;;;;19.39;67.49;98445.41;2084191;28;19928;-49
2023/05/23 02:27:33;;;;;;;;;;;;;;;19.40;67.85;98447.84;2088338;28;19929;-48
2023/05/23 02:28:34;;;;;;;;;;;;;;;19.39;67.78;98446.22;2085415;28;20382;-49
2023/05/23 02:29:36;;;;;;;;;;;;;;;19.39;67.50;98446.22;2085418;28;19924;-49
2023/05/23 02:30:37;;;;;;;;;;;;;;;19.38;67.41;98447.22;2086852;28;19929;-49
2023/05/23 02:31:38;;;;;;;;;;;;;;;19.39;67.50;98443.53;2086377;28;19928;-49
2023/05/23 02:32:39;;;;;;;;;;;;;;;19.39;67.75;98442.72;2085597;28;20351;-50
2023/05/23 02:33:40;;;;;;;;;;;;;;;19.38;67.74;98444.53;2085513;28;19997;-52
2023/05/23 02:34:45;;;;;;;;;;;;;;;19.38;67.78;98444.53;2085036;28;20321;-50
2023/05/23 02:35:46;;;;;;;;;;;;;;;19.38;67.72;98449.09;2086474;28;19935;-49
2023/05/23 02:36:47;;;;;;;;;;;;;;;19.38;67.79;98443.72;2086664;28;19928;-50
2023/05/23 02:37:48;;;;;;;;;;;;;;;19.39;67.82;98450.78;2087721;28;19920;-51
2023/05/23 02:38:49;;;;;;;;;;;;;;;19.39;67.54;98445.41;2085713;28;20034;-51
2023/05/23 02:39:50;;;;;;;;;;;;;;;19.38;67.77;98449.91;2086504;28;20282;-50
2023/05/23 02:40:52;;;;;;;;;;;;;;;19.39;67.75;98461.53;2087579;28;20016;-50
2023/05/23 02:41:52;;;;;;;;;;;;;;;19.38;67.67;98452.63;2086511;28;19923;-51
2023/05/23 02:42:56;;;;;;;;;;;;;;;19.39;67.60;98456.16;2087902;28;19954;-50
2023/05/23 02:43:56;;;;;;;;;;;;;;;19.39;67.57;98453.47;2084939;28;19968;-51
2023/05/23 02:44:59;;;;;;;;;;;;;;;19.37;67.40;98456.34;2082436;28;19925;-49
2023/05/23 02:45:59;;;;;;;;;;;;;;;19.37;67.79;98453.66;2085892;28;19936;-49
2023/05/23 02:47:01;;;;;;;;;;;;;;;19.37;67.71;98459.03;2076238;28;20587;-49
2023/05/23 02:48:01;;;;;;;;;;;;;;;19.37;67.50;98452.84;2084419;28;20449;-51
2023/05/23 02:49:03;;;;;;;;;;;;;;;19.36;67.55;98460.09;2083508;28;19935;-51
2023/05/23 02:50:04;;;;;;;;;;;;;;;19.36;67.83;98454.72;2085705;28;20640;-49
2023/05/23 02:51:05;;;;;;;;;;;;;;;19.36;67.57;98452.03;2086500;28;19981;-50
2023/05/23 02:52:06;;;;;;;;;;;;;;;19.37;67.80;98453.66;2084993;28;19920;-50
2023/05/23 02:53:07;;;;;;;;;;;;;;;19.36;67.44;98454.72;2084924;28;19928;-49
2023/05/23 02:54:08;;;;;;;;;;;;;;;19.35;67.89;98447.66;2087058;28;20380;-50
2023/05/23 02:55:09;;;;;;;;;;;;;;;19.37;67.60;98453.66;2088288;28;19931;-48
2023/05/23 02:56:10;;;;;;;;;;;;;;;19.36;67.78;98449.34;2086166;28;19925;-50
2023/05/23 02:57:11;;;;;;;;;;;;;;;19.37;67.70;98455.53;2083735;28;19950;-52
2023/05/23 02:58:12;;;;;;;;;;;;;;;19.36;67.41;98456.56;2086852;28;20304;-49
2023/05/23 02:59:13;;;;;;;;;;;;;;;19.36;67.70;98454.72;2081947;28;19966;-51
2023/05/23 03:00:16;;;;;;;;;;;;;;;19.37;67.74;98448.28;2084459;28;19944;-51
2023/05/23 03:01:18;;;;;;;;;;;;;;;19.37;67.78;98460.91;2083823;28;19924;-52
2023/05/23 03:02:18;;;;;;;;;;;;;;;19.36;67.63;98453.84;2085118;28;19928;-51
2023/05/23 03:03:20;;;;;;;;;;;;;;;19.36;67.59;98457.41;2087750;28;19921;-51
2023/05/23 03:04:21;;;;;;;;;;;;;;;19.36;67.61;98454.72;2084233;28;19958;-51
2023/05/23 03:05:22;;;;;;;;;;;;;;;19.36;67.81;98457.41;2085967;28;19924;-53
2023/05/23 03:06:23;;;;;;;;;;;;;;;19.35;67.78;98458.41;2087440;28;19949;-51
2023/05/23 03:07:24;;;;;;;;;;;;;;;19.37;67.57;98461.72;2086741;28;20375;-49
2023/05/23 03:08:25;;;;;;;;;;;;;;;19.36;67.79;98457.41;2086231;28;20009;-51
2023/05/23 03:09:26;;;;;;;;;;;;;;;19.35;67.54;98461.09;2086899;28;19924;-50
2023/05/23 03:10:27;;;;;;;;;;;;;;;19.36;67.63;98461.94;2087790;28;20421;-51
2023/05/23 03:11:28;;;;;;;;;;;;;;;19.35;67.67;98457.59;2084134;28;19925;-50
2023/05/23 03:12:29;;;;;;;;;;;;;;;19.33;67.58;98463.19;2085402;28;19921;-54
2023/05/23 03:13:31;;;;;;;;;;;;;;;19.34;67.74;98456.78;2086705;28;19959;-53
2023/05/23 03:14:31;;;;;;;;;;;;;;;19.35;67.82;98462.97;2089184;28;19965;-50
2023/05/23 03:15:34;;;;;;;;;;;;;;;19.36;67.81;98459.25;2086507;28;20037;-52
2023/05/23 03:16:34;;;;;;;;;;;;;;;19.35;67.62;98460.28;2085470;28;20018;-51
2023/05/23 03:17:36;;;;;;;;;;;;;;;19.34;67.83;98467.53;2086766;28;19928;-48
2023/05/23 03:18:36;;;;;;;;;;;;;;;19.35;67.90;98462.97;2084101;28;19974;-49
2023/05/23 03:19:38;;;;;;;;;;;;;;;19.34;67.50;98464.03;2086187;28;19924;-52
2023/05/23 03:20:38;;;;;;;;;;;;;;;19.35;67.58;98465.66;2084384;28;20343;-51
2023/05/23 03:21:40;;;;;;;;;;;;;;;19.33;67.48;98463.19;2087457;28;19932;-53
2023/05/23 03:22:42;;;;;;;;;;;;;;;19.33;67.59;98460.50;2087452;28;19954;-50
2023/05/23 03:23:43;;;;;;;;;;;;;;;19.33;67.56;98457.81;2087069;28;19928;-49
2023/05/23 03:24:44;;;;;;;;;;;;;;;19.33;67.54;98459.66;2083040;28;19924;-52
2023/05/23 03:25:45;;;;;;;;;;;;;;;19.34;67.55;98458.66;2086594;28;20178;-49
2023/05/23 03:26:46;;;;;;;;;;;;;;;19.34;67.45;98464.03;2088032;28;20386;-49
2023/05/23 03:27:48;;;;;;;;;;;;;;;19.34;67.58;98466.72;2087355;28;19921;-50
2023/05/23 03:28:48;;;;;;;;;;;;;;;19.32;67.65;98461.53;2085544;28;19973;-50
2023/05/23 03:29:50;;;;;;;;;;;;;;;19.33;67.58;98468.56;2086884;28;19936;-51
2023/05/23 03:30:52;;;;;;;;;;;;;;;19.32;67.75;98466.91;2084114;28;19978;-51
2023/05/23 03:31:53;;;;;;;;;;;;;;;19.32;67.51;98464.22;2088315;28;19968;-52
2023/05/23 03:32:54;;;;;;;;;;;;;;;19.32;67.72;98466.09;2086440;28;20016;-51
2023/05/23 03:33:55;;;;;;;;;;;;;;;19.32;67.71;98464.22;2086317;28;20294;-49
2023/05/23 03:34:56;;;;;;;;;;;;;;;19.32;67.63;98464.22;2088012;28;20409;-51
2023/05/23 03:35:57;;;;;;;;;;;;;;;19.32;67.65;98461.53;2091772;28;19921;-50
2023/05/23 03:36:59;;;;;;;;;;;;;;;19.32;67.61;98466.91;2086151;28;19936;-49
2023/05/23 03:37:59;;;;;;;;;;;;;;;19.33;67.80;98460.50;2089306;28;20140;-51
2023/05/23 03:39:01;;;;;;;;;;;;;;;19.31;67.66;98457.22;2086113;28;19932;-49
2023/05/23 03:40:02;;;;;;;;;;;;;;;19.32;67.51;98461.53;2085584;28;19974;-51
2023/05/23 03:41:03;;;;;;;;;;;;;;;19.32;67.52;98461.53;2085717;28;19928;-50
2023/05/23 03:42:04;;;;;;;;;;;;;;;19.32;67.52;98460.72;2085117;28;19981;-49
2023/05/23 03:43:06;;;;;;;;;;;;;;;19.32;67.81;98461.53;2088262;28;20349;-52
2023/05/23 03:44:07;;;;;;;;;;;;;;;19.31;67.83;98462.59;2087507;28;19924;-50
2023/05/23 03:45:08;;;;;;;;;;;;;;;19.30;67.50;98462.78;2090056;28;19928;-50
2023/05/23 03:46:10;;;;;;;;;;;;;;;19.29;67.78;98467.34;2086189;28;19924;-52
2023/05/23 03:47:12;;;;;;;;;;;;;;;19.30;67.76;98463.59;2086064;28;20313;-50
2023/05/23 03:48:12;;;;;;;;;;;;;;;19.31;67.82;98459.06;2084431;28;20540;-50
2023/05/23 03:49:14;;;;;;;;;;;;;;;19.32;67.56;98466.09;2086190;28;19974;-49
2023/05/23 03:50:14;;;;;;;;;;;;;;;19.30;67.80;98463.59;2088594;28;19928;-50
2023/05/23 03:51:15;;;;;;;;;;;;;;;19.30;67.63;98460.91;2086690;28;20317;-49
2023/05/23 03:52:16;;;;;;;;;;;;;;;19.30;67.68;98466.28;2084431;28;19932;-51
2023/05/23 03:53:17;;;;;;;;;;;;;;;19.30;67.66;98460.91;2085124;28;19921;-51
2023/05/23 03:54:18;;;;;;;;;;;;;;;19.29;67.66;98456.59;2083899;28;19925;-49
2023/05/23 03:55:22;;;;;;;;;;;;;;;19.30;67.48;98466.28;2085126;28;20329;-51
2023/05/23 03:56:23;;;;;;;;;;;;;;;19.29;67.50;98459.28;2085035;28;19932;-50
2023/05/23 03:57:24;;;;;;;;;;;;;;;19.28;67.81;98471.09;2084392;28;19956;-50
2023/05/23 03:58:25;;;;;;;;;;;;;;;19.29;67.72;98463.84;2087108;28;19969;-49
2023/05/23 03:59:26;;;;;;;;;;;;;;;19.28;67.44;98465.69;2085709;28;19924;-50
2023/05/23 04:00:27;;;;;;;;;;;;;;;19.29;67.75;98466.53;2086462;28;19974;-50
2023/05/23 04:01:29;;;;;;;;;;;;;;;19.29;67.76;98469.22;2088211;28;20424;-50
2023/05/23 04:02:30;;;;;;;;;;;;;;;19.29;67.75;98472.72;2085714;28;19920;-48
2023/05/23 04:03:32;;;;;;;;;;;;;;;19.29;67.81;98472.72;2086175;28;19994;-52
2023/05/23 04:04:33;;;;;;;;;;;;;;;19.28;67.50;98468.38;2086248;28;20390;-50
2023/05/23 04:05:34;;;;;;;;;;;;;;;19.28;67.64;98471.09;2086094;28;20027;-50
2023/05/23 04:06:35;;;;;;;;;;;;;;;19.28;67.46;98470.22;2087400;28;19925;-49
2023/05/23 04:07:37;;;;;;;;;;;;;;;19.28;67.72;98471.09;2086388;28;19933;-49
2023/05/23 04:08:40;;;;;;;;;;;;;;;19.28;67.70;98468.38;2088272;28;19945;-50
2023/05/23 04:09:42;;;;;;;;;;;;;;;19.29;67.50;98470.03;2088595;28;19924;-50
2023/05/23 04:10:42;;;;;;;;;;;;;;;19.29;67.43;98466.53;2087924;28;19924;-51
2023/05/23 04:11:44;;;;;;;;;;;;;;;19.27;67.44;98472.09;2087112;28;20420;-52
2023/05/23 04:12:46;;;;;;;;;;;;;;;19.27;67.56;98469.41;2085127;28;20342;-52
2023/05/23 04:13:48;;;;;;;;;;;;;;;19.27;67.75;98472.09;2085365;28;20014;-52
2023/05/23 04:14:49;;;;;;;;;;;;;;;19.27;67.53;98469.41;2085975;28;19936;-49
2023/05/23 04:15:51;;;;;;;;;;;;;;;19.27;67.85;98473.97;2086883;28;19928;-49
2023/05/23 04:16:52;;;;;;;;;;;;;;;19.26;67.50;98472.31;2088311;28;19967;-49
2023/05/23 04:17:55;;;;;;;;;;;;;;;19.26;67.39;98475.84;2090313;28;19932;-50
2023/05/23 04:18:57;;;;;;;;;;;;;;;19.26;67.56;98478.53;2087413;28;19925;-49
2023/05/23 04:19:58;;;;;;;;;;;;;;;19.26;67.76;98472.31;2086002;28;19924;-50
2023/05/23 04:20:59;;;;;;;;;;;;;;;19.26;67.64;98472.31;2085195;28;19927;-50
2023/05/23 04:22:00;;;;;;;;;;;;;;;19.27;67.60;98469.41;2087445;28;19928;-51
2023/05/23 04:23:01;;;;;;;;;;;;;;;19.24;67.73;98472.53;2087538;28;19932;-50
2023/05/23 04:24:03;;;;;;;;;;;;;;;19.24;67.74;98469.84;2087407;28;19924;-51
2023/05/23 04:25:05;;;;;;;;;;;;;;;19.25;67.72;98471.50;2085313;28;20537;-48
2023/05/23 04:26:06;;;;;;;;;;;;;;;19.26;67.48;98472.31;2086876;28;19978;-49
2023/05/23 04:27:07;;;;;;;;;;;;;;;19.25;67.47;98465.28;2089787;28;19965;-49
2023/05/23 04:28:09;;;;;;;;;;;;;;;19.26;67.70;98472.31;2087009;28;20399;-51
2023/05/23 04:29:10;;;;;;;;;;;;;;;19.27;67.79;98471.28;2088990;28;20434;-50
2023/05/23 04:30:12;;;;;;;;;;;;;;;19.27;67.75;98471.28;2087440;28;20655;-51
2023/05/23 04:31:13;;;;;;;;;;;;;;;19.27;67.60;98474.78;2085901;28;19969;-49
2023/05/23 04:32:18;;;;;;;;;;;;;;;19.26;67.67;98475.84;2087978;28;19978;-51
2023/05/23 04:33:18;;;;;;;;;;;;;;;19.26;67.70;98483.09;2088700;28;20571;-52
2023/05/23 04:34:21;;;;;;;;;;;;;;;19.26;67.30;98473.16;2086736;28;19920;-49
2023/05/23 04:35:21;;;;;;;;;;;;;;;19.25;67.77;98471.50;2087734;28;19920;-50
2023/05/23 04:36:24;;;;;;;;;;;;;;;19.26;67.47;98475.84;2089203;28;19924;-51
2023/05/23 04:37:24;;;;;;;;;;;;;;;19.25;67.62;98468.81;2087336;28;20015;-51
2023/05/23 04:38:26;;;;;;;;;;;;;;;19.25;67.72;98476.03;2086391;28;19925;-49
2023/05/23 04:39:27;;;;;;;;;;;;;;;19.24;67.41;98475.22;2088812;28;19924;-50
2023/05/23 04:40:29;;;;;;;;;;;;;;;19.24;67.76;98474.41;2086582;28;20015;-50
2023/05/23 04:41:30;;;;;;;;;;;;;;;19.24;67.71;98479.78;2087014;28;19920;-59
2023/05/23 04:42:32;;;;;;;;;;;;;;;19.24;67.37;98480.59;2087806;28;19927;-52
2023/05/23 04:43:32;;;;;;;;;;;;;;;19.25;67.74;98471.50;2085457;28;19947;-52
2023/05/23 04:44:36;;;;;;;;;;;;;;;19.25;67.78;98476.88;2087454;28;20597;-49
2023/05/23 04:45:36;;;;;;;;;;;;;;;19.24;67.62;98477.91;2088806;28;20019;-52
2023/05/23 04:46:40;;;;;;;;;;;;;;;19.24;67.35;98479.78;2088893;28;19920;-51
2023/05/23 04:47:43;;;;;;;;;;;;;;;19.24;67.46;98469.84;2085925;28;19928;-48
2023/05/23 04:48:45;;;;;;;;;;;;;;;19.24;67.58;98479.78;2089491;28;20508;-50
2023/05/23 04:49:46;;;;;;;;;;;;;;;19.22;67.46;98471.91;2086114;28;20447;-52
2023/05/23 04:50:50;;;;;;;;;;;;;;;19.24;67.81;98474.41;2086264;28;20310;-51
2023/05/23 04:51:50;;;;;;;;;;;;;;;19.24;67.69;98477.09;2084800;28;19928;-50
2023/05/23 04:52:51;;;;;;;;;;;;;;;19.24;67.68;98477.09;2086629;28;19924;-50
2023/05/23 04:53:52;;;;;;;;;;;;;;;19.24;67.73;98475.22;2086754;28;19924;-51
2023/05/23 04:54:54;;;;;;;;;;;;;;;19.23;67.54;98476.25;2083271;28;19920;-49
2023/05/23 04:55:55;;;;;;;;;;;;;;;19.23;67.74;98484.31;2087527;28;19928;-51
2023/05/23 04:56:56;;;;;;;;;;;;;;;19.23;67.71;98478.94;2086463;28;20441;-49
2023/05/23 04:57:57;;;;;;;;;;;;;;;19.23;67.63;98473.56;2083773;28;19925;-52
2023/05/23 04:58:58;;;;;;;;;;;;;;;19.23;67.72;98475.44;2088401;28;19920;-48
2023/05/23 04:59:59;;;;;;;;;;;;;;;19.22;67.40;98471.91;2086623;28;20470;-49
2023/05/23 05:01:01;;;;;;;;;;;;;;;19.21;67.58;98475.63;2085863;28;21854;-52
2023/05/23 05:02:01;;;;;;;;;;;;;;;19.22;67.61;98474.59;2084986;28;20410;-51
2023/05/23 05:03:04;;;;;;;;;;;;;;;19.22;67.75;98479.97;2086415;28;19929;-49
2023/05/23 05:04:05;;;;;;;;;;;;;;;19.23;67.68;98475.44;2085893;28;20014;-50
2023/05/23 05:05:07;;;;;;;;;;;;;;;19.23;67.37;98478.13;2087725;28;19994;-53
2023/05/23 05:06:07;;;;;;;;;;;;;;;19.23;67.85;98478.13;2085885;28;19924;-50
2023/05/23 05:07:09;;;;;;;;;;;;;;;19.22;67.54;98473.78;2089403;28;19926;-51
2023/05/23 05:08:10;;;;;;;;;;;;;;;19.20;67.54;98480.19;2083206;28;21759;-51
2023/05/23 05:09:11;;;;;;;;;;;;;;;19.21;67.63;98470.25;2088960;28;19928;-49
2023/05/23 05:10:16;;;;;;;;;;;;;;;19.21;67.56;98470.25;2087113;28;19924;-49
2023/05/23 05:11:18;;;;;;;;;;;;;;;19.21;67.80;98478.31;2086138;28;19927;-49
2023/05/23 05:12:18;;;;;;;;;;;;;;;19.21;67.71;98464.88;2086915;28;19981;-51
2023/05/23 05:13:20;;;;;;;;;;;;;;;19.22;67.80;98474.59;2088437;28;19985;-51
2023/05/23 05:14:20;;;;;;;;;;;;;;;19.22;67.32;98474.59;2083064;28;19924;-49
2023/05/23 05:15:22;;;;;;;;;;;;;;;19.21;67.63;98467.56;2087360;28;19925;-51
2023/05/23 05:16:22;;;;;;;;;;;;;;;19.22;67.46;98471.09;2084914;28;19928;-50
2023/05/23 05:17:24;;;;;;;;;;;;;;;19.21;67.55;98470.25;2086458;28;20303;-49
2023/05/23 05:18:26;;;;;;;;;;;;;;;19.21;67.54;98470.25;2087368;28;19936;-49
2023/05/23 05:19:27;;;;;;;;;;;;;;;19.21;67.61;98472.94;2085652;28;19974;-51
2023/05/23 05:20:28;;;;;;;;;;;;;;;19.23;67.37;98475.44;2087031;28;19920;-50
2023/05/23 05:21:30;;;;;;;;;;;;;;;19.21;67.41;98472.94;2084902;28;19924;-49